Terminal Aerodrome Forecast
Issued by NWS

Home | Current Version | Previous Version | Text Only | Print | Product List | Glossary On
Versions: 1 2 3 4 5 6 7 8 9 10 11 12 13 14 15 16 17 18 19 20 21 22
000
FTUS42 KILM 231700
TAFCRE
TAF
KCRE 231720Z 2318/2418 VRB03KT P6SM VCSH SCT030
     FM232200 21011KT P6SM SCT030 SCT200
     FM240700 23006KT P6SM FEW020 SCT080
     FM241500 23011KT P6SM SCT030=

USA.gov is the U.S. government's official web portal to all federal, state and local government web resources and services.